Time;durP1;ratioP1;P1;durP2;ratioP2;P2;SDS_P1;SDS_P2;PMS_P1;PMS_P2;Temp;Humidity;BMP_temperature;BMP_pressure;BME280_temperature;BME280_humidity;BME280_pressure;Samples;Min_cycle;Max_cycle;Signal;HPM_P1;HPM_P2
2022/11/26 00:00:32;;;;;;;49.22;23.88;;;;;;;10.31;100.00;94770.31;5081284;28;20024;-88
2022/11/26 00:03:00;;;;;;;217.23;29.70;;;;;;;10.05;100.00;94772.78;5064843;28;20105;-88
2022/11/26 00:05:31;;;;;;;53.65;26.55;;;;;;;10.11;100.00;94768.38;5080285;28;20417;-88
2022/11/26 00:07:58;;;;;;;58.30;28.70;;;;;;;10.48;100.00;94769.38;5063893;28;20028;-88
2022/11/26 00:10:26;;;;;;;50.70;25.27;;;;;;;10.70;100.00;94767.34;5063147;28;20024;-88
2022/11/26 00:12:52;;;;;;;60.10;26.95;;;;;;;10.27;100.00;94770.03;5079778;28;20028;-87
2022/11/26 00:15:23;;;;;;;57.17;28.10;;;;;;;10.12;100.00;94767.34;5062924;28;20028;-87
2022/11/26 00:17:53;;;;;;;54.83;27.35;;;;;;;10.33;100.00;94773.47;5079467;28;20023;-87
2022/11/26 00:20:22;;;;;;;61.13;27.65;;;;;;;10.62;100.00;94777.56;5079422;28;20020;-88
2022/11/26 00:22:50;;;;;;;69.43;22.63;;;;;;;10.63;100.00;94773.88;5079298;28;20031;-88
2022/11/26 00:25:25;;;;;;;37.67;21.35;;;;;;;10.83;100.00;94778.38;5079576;28;20106;-88
2022/11/26 00:27:52;;;;;;;38.70;20.15;;;;;;;10.89;100.00;94770.25;5062743;28;20028;-88
2022/11/26 00:30:24;;;;;;;65.53;28.30;;;;;;;10.63;100.00;94774.66;5097342;28;20436;-88
2022/11/26 00:32:50;;;;;;;76.22;32.08;;;;;;;10.31;100.00;94770.31;5097459;28;20031;-88
2022/11/26 00:35:16;;;;;;;64.93;29.63;;;;;;;10.70;100.00;94769.16;5079562;28;20042;-88
2022/11/26 00:38:01;;;;;;;62.35;28.75;;;;;;;10.88;100.00;94773.94;5097687;28;20429;-88
2022/11/26 00:40:31;;;;;;;61.38;27.92;;;;;;;11.03;100.00;94775.81;5078706;28;20040;-88
2022/11/26 00:42:57;;;;;;;67.40;29.33;;;;;;;10.79;100.00;94772.06;5097331;28;20172;-87
2022/11/26 00:45:27;;;;;;;59.03;27.95;;;;;;;10.96;100.00;94784.97;5079498;28;20106;-87
2022/11/26 00:47:53;;;;;;;62.25;26.92;;;;;;;10.96;100.00;94788.38;5079825;28;20028;-88
2022/11/26 00:50:23;;;;;;;66.80;28.05;;;;;;;10.81;100.00;94790.94;5096847;28;20020;-87
2022/11/26 00:52:52;;;;;;;56.75;27.67;;;;;;;10.94;100.00;94789.69;5079367;28;20432;-88
2022/11/26 00:55:17;;;;;;;61.63;28.00;;;;;;;10.93;100.00;94782.88;5079413;28;20032;-89
2022/11/26 00:57:42;;;;;;;61.10;26.80;;;;;;;10.68;100.00;94787.00;5096635;28;20535;-88
2022/11/26 01:00:20;;;;;;;48.00;25.23;;;;;;;11.06;100.00;94777.13;5062008;28;20032;-88
2022/11/26 01:02:46;;;;;;;60.17;24.17;;;;;;;10.74;100.00;94773.66;5062294;28;20119;-88
2022/11/26 01:05:12;;;;;;;63.35;27.90;;;;;;;10.71;100.00;94789.09;5079047;28;20102;-89
2022/11/26 01:07:40;;;;;;;47.20;23.60;;;;;;;10.67;100.00;94782.78;5078916;28;20028;-89
2022/11/26 01:10:14;;;;;;;69.93;28.45;;;;;;;10.66;100.00;94778.59;5079601;28;20039;-88
2022/11/26 01:12:41;;;;;;;;;;;;;;;10.98;100.00;94780.25;5079302;28;20077;-88
2022/11/26 01:15:07;;;;;;;57.35;25.00;;;;;;;10.95;100.00;94776.31;5079214;28;19915;-89
2022/11/26 01:17:32;;;;;;;57.55;25.70;;;;;;;10.95;100.00;94776.31;5079354;28;20485;-88
2022/11/26 01:19:58;;;;;;;56.15;24.00;;;;;;;10.96;100.00;94771.88;5062377;28;20020;-87
2022/11/26 01:22:25;;;;;;;52.95;23.60;;;;;;;11.04;100.00;94763.47;5078772;28;20329;-88
2022/11/26 01:24:53;;;;;;;51.05;22.48;;;;;;;10.99;100.00;94774.75;5079157;28;20115;-88
2022/11/26 01:27:29;;;;;;;;;;;;;;;;;;;;;
2022/11/26 01:29:55;;;;;;;53.38;21.40;;;;;;;11.06;100.00;94773.72;5080080;28;20022;-88
2022/11/26 01:32:20;;;;;;;50.08;21.65;;;;;;;11.07;100.00;94765.59;5078619;28;20024;-88
2022/11/26 01:34:46;;;;;;;48.40;21.40;;;;;;;10.97;100.00;94776.06;5096940;28;20115;-88
2022/11/26 01:37:13;;;;;;;49.78;21.58;;;;;;;10.92;100.00;94768.97;5078977;28;20039;-88
2022/11/26 01:39:38;;;;;;;49.83;21.92;;;;;;;10.86;100.00;94775.25;5078824;28;20329;-88
2022/11/26 01:42:04;;;;;;;52.95;22.38;;;;;;;10.80;100.00;94776.28;5085890;28;20081;-89
2022/11/26 01:44:32;;;;;;;50.47;20.95;;;;;;;10.79;100.00;94775.50;5107915;28;20155;-88
2022/11/26 01:46:58;;;;;;;55.47;22.05;;;;;;;10.54;100.00;94784.84;5081819;28;20440;-88
2022/11/26 01:49:25;;;;;;;58.65;24.83;;;;;;;10.91;100.00;94780.50;5081890;28;20027;-88
2022/11/26 01:52:22;;;;;;;61.00;24.33;;;;;;;11.08;100.00;94788.16;5116634;28;20030;-89
2022/11/26 01:54:49;;;;;;;65.22;25.65;;;;;;;10.92;100.00;94784.69;5099100;28;20081;-88
2022/11/26 01:57:26;;;;;;;73.50;28.30;;;;;;;11.04;100.00;94792.31;5099000;28;20027;-88
2022/11/26 01:59:54;;;;;;;73.57;26.92;;;;;;;11.07;100.00;94793.66;5098943;28;20023;-88
2022/11/26 02:02:22;;;;;;;67.25;25.85;;;;;;;10.94;100.00;94797.56;5098640;28;20031;-88
2022/11/26 02:05:02;;;;;;;77.53;27.58;;;;;;;10.70;100.00;94790.94;5078085;28;20118;-88
2022/11/26 02:07:30;;;;;;;79.20;28.48;;;;;;;10.85;100.00;94792.81;5061553;28;20088;-88
2022/11/26 02:09:55;;;;;;;57.75;23.52;;;;;;;10.77;100.00;94793.31;5063463;28;20035;-88
2022/11/26 02:12:24;;;;;;;49.90;23.02;;;;;;;10.81;100.00;94798.81;5065444;28;20506;-88
2022/11/26 02:14:52;;;;;;;67.53;26.80;;;;;;;10.55;100.00;94801.38;5082548;28;20020;-88
2022/11/26 02:17:33;;;;;;;66.43;27.55;;;;;;;10.94;100.00;94798.34;5081944;28;20562;-88
2022/11/26 02:20:15;;;;;;;61.30;24.63;;;;;;;10.88;100.00;94789.66;5099659;28;20111;-88
2022/11/26 02:23:08;;;;;;;69.82;29.40;;;;;;;11.09;100.00;94797.59;5099678;28;20077;-88
2022/11/26 02:25:46;;;;;;;84.00;33.38;;;;;;;10.76;100.00;94799.63;5099589;28;20023;-88
2022/11/26 02:28:19;;;;;;;74.13;31.35;;;;;;;10.97;100.00;94802.28;5099491;28;20035;-87
2022/11/26 02:30:48;;;;;;;73.50;30.35;;;;;;;11.21;100.00;94801.81;5082060;28;20340;-87
2022/11/26 02:33:25;;;;;;;73.88;27.65;;;;;;;11.22;100.00;94800.75;5081648;28;20332;-87
2022/11/26 02:35:55;;;;;;;57.53;27.15;;;;;;;11.16;100.00;94799.97;5081617;28;20037;-87
2022/11/26 02:38:26;;;;;;;53.03;26.38;;;;;;;11.07;100.00;94802.31;5065000;28;20189;-87
2022/11/26 02:40:52;;;;;;;68.53;29.90;;;;;;;10.77;100.00;94805.63;5081640;28;20076;-87
2022/11/26 02:43:18;;;;;;;70.78;30.02;;;;;;;10.76;100.00;94812.72;5081902;28;20055;-87
2022/11/26 02:45:55;;;;;;;151.45;31.85;;;;;;;10.53;100.00;94809.47;5064826;28;20024;-87
2022/11/26 02:48:23;;;;;;;84.95;30.88;;;;;;;10.58;100.00;94806.84;5066299;28;20120;-87
2022/11/26 02:50:55;;;;;;;68.20;30.50;;;;;;;10.80;100.00;94807.72;5081576;28;20055;-88
2022/11/26 02:53:22;;;;;;;62.63;30.35;;;;;;;10.88;100.00;94813.25;5098558;28;20058;-87
2022/11/26 02:55:53;;;;;;;67.07;30.13;;;;;;;10.83;100.00;94810.63;5081537;28;20032;-87
2022/11/26 02:58:21;;;;;;;251.15;34.20;;;;;;;10.52;100.00;94822.81;5081705;28;20447;-87
2022/11/26 03:00:48;;;;;;;69.82;31.02;;;;;;;10.80;100.00;94820.84;5081655;28;20385;-87
2022/11/26 03:03:22;;;;;;;86.95;33.08;;;;;;;10.92;100.00;94824.03;5081139;28;20037;-88
2022/11/26 03:05:54;;;;;;;210.90;35.58;;;;;;;10.65;100.00;94826.81;5081192;28;20077;-88
2022/11/26 03:08:20;;;;;;;88.43;36.20;;;;;;;10.74;100.00;94830.50;5064748;28;20023;-88
2022/11/26 03:10:48;;;;;;;281.20;42.50;;;;;;;10.42;100.00;94834.03;5064130;28;20073;-88
2022/11/26 03:13:13;;;;;;;92.93;38.03;;;;;;;10.40;100.00;94831.66;5081227;28;20031;-88
2022/11/26 03:15:39;;;;;;;111.28;40.03;;;;;;;10.11;100.00;94831.22;5080893;28;20028;-88
2022/11/26 03:18:06;;;;;;;118.13;38.85;;;;;;;9.85;100.00;94821.38;5080696;28;20475;-87
2022/11/26 03:20:34;;;;;;;113.28;40.22;;;;;;;10.05;100.00;94830.38;5080817;28;20593;-87
2022/11/26 03:22:59;;;;;;;110.47;40.13;;;;;;;10.32;100.00;94824.28;5080205;28;20374;-87
2022/11/26 03:25:25;;;;;;;104.78;38.08;;;;;;;10.31;100.00;94828.72;5080722;28;20024;-88
2022/11/26 03:27:50;;;;;;;92.72;36.22;;;;;;;10.38;100.00;94830.31;5098868;28;20066;-87
2022/11/26 03:30:16;;;;;;;103.03;38.67;;;;;;;10.42;100.00;94831.41;5080642;28;20028;-88
2022/11/26 03:32:41;;;;;;;96.82;38.22;;;;;;;10.13;100.00;94839.59;5080560;28;20052;-88
2022/11/26 03:35:10;;;;;;;96.07;36.92;;;;;;;10.32;100.00;94838.13;5080954;28;20028;-88
2022/11/26 03:37:36;;;;;;;89.07;36.30;;;;;;;10.43;100.00;94838.22;5080444;28;20023;-87
2022/11/26 03:40:01;;;;;;;94.97;37.55;;;;;;;10.17;100.00;94827.56;5080366;28;20031;-87
2022/11/26 03:42:29;;;;;;;94.60;39.08;;;;;;;10.13;100.00;94836.97;5080178;28;20524;-87
2022/11/26 03:44:54;;;;;;;97.82;38.70;;;;;;;10.14;100.00;94838.56;5080923;28;20127;-87
2022/11/26 03:47:20;;;;;;;98.15;39.47;;;;;;;10.18;100.00;94837.81;5080360;28;20115;-88
2022/11/26 03:49:47;;;;;;;95.68;37.88;;;;;;;10.43;100.00;94844.28;5080293;28;20023;-87
2022/11/26 03:52:13;;;;;;;92.78;37.58;;;;;;;10.23;100.00;94837.06;5063939;28;20106;-87
2022/11/26 03:54:38;;;;;;;80.53;36.00;;;;;;;10.18;100.00;94837.81;5080200;28;20077;-88
2022/11/26 03:57:04;;;;;;;86.90;37.08;;;;;;;10.43;100.00;94838.22;5063563;28;20120;-87
2022/11/26 03:59:29;;;;;;;89.53;37.38;;;;;;;10.43;100.00;94835.59;5063572;28;20440;-87
2022/11/26 04:01:55;;;;;;;98.43;41.85;;;;;;;10.52;100.00;94839.34;5079459;28;20031;-87
2022/11/26 04:04:22;;;;;;;98.50;38.13;;;;;;;10.30;100.00;94837.59;5097120;28;20058;-87
2022/11/26 04:06:48;;;;;;;101.18;38.03;;;;;;;10.33;100.00;94844.97;5063867;28;20097;-87
2022/11/26 04:09:13;;;;;;;90.10;37.17;;;;;;;10.36;100.00;94845.50;5063663;28;20028;-87
2022/11/26 04:11:39;;;;;;;104.47;39.83;;;;;;;10.36;100.00;94841.03;5062620;28;20119;-88
2022/11/26 04:14:04;;;;;;;86.93;36.53;;;;;;;10.57;100.00;94834.09;5079775;28;20028;-88
2022/11/26 04:16:29;;;;;;;92.00;38.20;;;;;;;9.61;100.00;94831.38;5063497;28;20027;-88
2022/11/26 04:18:57;;;;;;;87.88;37.38;;;;;;;10.33;100.00;94836.31;5089809;28;20019;-88
2022/11/26 04:21:23;;;;;;;92.50;38.53;;;;;;;10.11;100.00;94839.84;5099677;28;20110;-88
2022/11/26 04:23:50;;;;;;;99.30;39.95;;;;;;;10.32;100.00;94842.59;5080529;28;20382;-88
2022/11/26 04:26:16;;;;;;;100.30;39.85;;;;;;;10.40;100.00;94842.13;5077585;28;20093;-88
2022/11/26 04:28:49;;;;;;;106.47;39.85;;;;;;;9.76;100.00;94841.19;5094724;28;20055;-89
2022/11/26 04:31:15;;;;;;;102.72;39.90;;;;;;;10.23;100.00;94847.53;5083364;28;20046;-89
2022/11/26 04:33:41;;;;;;;115.95;41.08;;;;;;;10.30;100.00;94855.94;5082782;28;20027;-88
2022/11/26 04:36:07;;;;;;;125.97;46.85;;;;;;;10.18;100.00;94857.94;5083263;28;20735;-88
2022/11/26 04:38:34;;;;;;;122.68;45.28;;;;;;;10.37;100.00;94849.69;5082582;28;20031;-88
2022/11/26 04:41:00;;;;;;;134.25;47.08;;;;;;;9.80;100.00;94849.31;5099778;28;20024;-88
2022/11/26 04:43:25;;;;;;;130.93;47.08;;;;;;;10.19;100.00;94852.47;5099529;28;20110;-88
2022/11/26 04:45:51;;;;;;;146.15;47.92;;;;;;;10.22;100.00;94866.09;5117573;28;20042;-88
2022/11/26 04:48:16;;;;;;;147.43;50.72;;;;;;;10.21;100.00;94857.47;5117906;28;20058;-88
2022/11/26 04:50:41;;;;;;;164.40;54.70;;;;;;;10.24;100.00;94864.81;5099225;28;20030;-88
2022/11/26 04:53:07;;;;;;;158.38;52.28;;;;;;;10.43;100.00;94869.66;5095559;28;20027;-88
2022/11/26 04:55:32;;;;;;;174.60;57.80;;;;;;;10.50;100.00;94870.25;5082504;28;20386;-88
2022/11/26 04:57:58;;;;;;;331.63;76.32;;;;;;;10.13;100.00;94863.97;5099176;28;20019;-87
2022/11/26 05:00:23;;;;;;;207.82;69.47;;;;;;;10.22;100.00;94872.13;5082344;28;20056;-88
2022/11/26 05:02:49;;;;;;;325.98;77.47;;;;;;;9.71;100.00;94873.31;5099363;28;20028;-88
2022/11/26 05:05:14;;;;;;;194.98;72.03;;;;;;;10.01;100.00;94887.69;5082506;28;20401;-87
2022/11/26 05:07:39;;;;;;;793.40;92.45;;;;;;;9.61;100.00;94883.69;5099060;28;20412;-88
2022/11/26 05:10:08;;;;;;;518.70;93.03;;;;;;;9.60;100.00;94890.75;5099264;28;20046;-88
2022/11/26 05:12:34;;;;;;;255.15;83.43;;;;;;;9.75;100.00;94895.34;5099317;28;20034;-88
2022/11/26 05:15:02;;;;;;;274.48;87.80;;;;;;;9.85;100.00;94901.69;5098919;28;20020;-88
2022/11/26 05:17:32;;;;;;;274.17;88.35;;;;;;;9.60;100.00;94893.38;5099038;28;20336;-88
2022/11/26 05:19:57;;;;;;;213.13;80.68;;;;;;;9.69;100.00;94906.78;5099117;28;20052;-87
2022/11/26 05:22:25;;;;;;;243.07;82.50;;;;;;;10.01;100.00;94916.47;5117362;28;20110;-88
2022/11/26 05:24:53;;;;;;;226.90;84.93;;;;;;;9.74;100.00;94916.53;5117447;28;20038;-88
2022/11/26 05:27:19;;;;;;;218.20;82.07;;;;;;;9.55;100.00;94926.53;5082189;28;20023;-88
2022/11/26 05:29:44;;;;;;;209.27;78.38;;;;;;;9.54;100.00;94919.72;5117418;28;20032;-88
2022/11/26 05:32:09;;;;;;;190.90;76.53;;;;;;;9.51;100.00;94918.38;5099058;28;20428;-88
2022/11/26 05:34:37;;;;;;;186.93;74.90;;;;;;;9.75;100.00;94920.72;5098746;28;20028;-88
2022/11/26 05:37:12;;;;;;;;;;;;;;;;;;;;;
2022/11/26 05:39:38;;;;;;;172.38;67.50;;;;;;;9.33;100.00;94938.63;5116811;28;20026;-87
2022/11/26 05:42:06;;;;;;;137.88;60.13;;;;;;;9.26;100.00;94939.84;5116877;28;20106;-87
2022/11/26 05:44:31;;;;;;;104.45;48.17;;;;;;;9.13;100.00;94941.00;5100230;28;20317;-88
2022/11/26 05:46:57;;;;;;;118.97;51.47;;;;;;;9.46;100.00;94947.91;5102745;28;20032;-87
2022/11/26 05:49:22;;;;;;;83.63;41.08;;;;;;;8.86;100.00;94941.72;5103003;28;20042;-87
2022/11/26 05:51:47;;;;;;;81.18;40.88;;;;;;;9.27;100.00;94947.44;5085935;28;20039;-88
2022/11/26 05:54:15;;;;;;;93.47;43.33;;;;;;;9.59;100.00;94953.78;5121389;28;20034;-88
2022/11/26 05:56:41;;;;;;;84.95;39.55;;;;;;;9.70;100.00;94958.09;5120918;28;20039;-88
2022/11/26 05:59:07;;;;;;;76.97;37.63;;;;;;;9.60;100.00;94956.16;5085317;28;20043;-89
2022/11/26 06:01:33;;;;;;;95.53;42.25;;;;;;;9.51;100.00;94972.53;5120740;28;20058;-88
2022/11/26 06:03:58;;;;;;;71.65;34.97;;;;;;;9.29;100.00;94962.88;5121128;28;20055;-88
2022/11/26 06:06:26;;;;;;;68.20;34.17;;;;;;;9.67;100.00;94955.97;5103051;28;20035;-88
2022/11/26 06:08:51;;;;;;;77.70;38.40;;;;;;;9.57;100.00;94955.84;5086214;28;20030;-88
2022/11/26 06:11:17;;;;;;;82.68;37.15;;;;;;;9.68;100.00;94943.66;5102554;28;20023;-88
2022/11/26 06:13:45;;;;;;;78.57;37.38;;;;;;;9.53;100.00;94949.53;5105143;28;20034;-87
2022/11/26 06:16:10;;;;;;;73.85;37.63;;;;;;;9.11;100.00;94962.16;5102280;28;20023;-88
2022/11/26 06:18:37;;;;;;;79.28;40.60;;;;;;;8.90;100.00;94958.47;5119182;28;20034;-88
2022/11/26 06:21:04;;;;;;;83.03;40.60;;;;;;;8.84;100.00;94962.06;5118896;28;20034;-88
2022/11/26 06:23:30;;;;;;;72.57;38.00;;;;;;;9.32;100.00;94963.19;5110935;28;20023;-88
2022/11/26 06:25:56;;;;;;;77.05;38.78;;;;;;;9.31;100.00;94969.44;5084801;28;20027;-87
2022/11/26 06:28:24;;;;;;;79.93;41.42;;;;;;;8.75;100.00;94979.97;5084926;28;20339;-87
2022/11/26 06:30:49;;;;;;;97.78;43.63;;;;;;;8.91;100.00;94984.38;5101947;28;20114;-87
2022/11/26 06:33:15;;;;;;;98.82;45.22;;;;;;;8.78;100.00;94984.72;5085123;28;20428;-87
2022/11/26 06:35:40;;;;;;;96.70;45.28;;;;;;;9.10;100.00;94986.72;5084947;28;20046;-87
2022/11/26 06:38:06;;;;;;;103.60;49.30;;;;;;;8.95;100.00;94989.13;5084967;28;20022;-84
2022/11/26 06:40:31;;;;;;;99.05;47.60;;;;;;;8.96;100.00;94990.72;5119702;28;20433;-88
2022/11/26 06:42:57;;;;;;;99.85;48.47;;;;;;;9.06;100.00;94990.84;5119908;28;20028;-89
2022/11/26 06:45:22;;;;;;;94.25;46.63;;;;;;;9.23;100.00;94988.16;5120453;28;20023;-88
2022/11/26 06:47:49;;;;;;;97.18;48.53;;;;;;;9.12;100.00;94992.47;5101925;28;20114;-89
2022/11/26 06:50:16;;;;;;;101.32;48.95;;;;;;;8.98;100.00;95012.16;5119876;28;20024;-90
2022/11/26 06:52:41;;;;;;;100.43;50.97;;;;;;;8.88;100.00;95007.59;5119806;28;20031;-89
2022/11/26 06:55:07;;;;;;;105.65;50.75;;;;;;;9.00;100.00;95007.47;5101992;28;20088;-91
2022/11/26 06:57:35;;;;;;;107.95;53.13;;;;;;;9.02;100.00;95008.84;5099896;28;20023;-89
2022/11/26 07:00:01;;;;;;;116.88;53.83;;;;;;;8.97;100.00;95007.97;5101510;28;20027;-90
2022/11/26 07:02:26;;;;;;;108.03;49.20;;;;;;;8.83;100.00;95013.53;5101100;28;20441;-90
2022/11/26 07:04:52;;;;;;;105.45;52.30;;;;;;;9.06;100.00;95017.00;5119248;28;20337;-90
2022/11/26 07:07:17;;;;;;;103.55;51.67;;;;;;;9.30;100.00;95014.13;5084358;28;20448;-89
2022/11/26 07:09:42;;;;;;;110.25;52.83;;;;;;;8.90;100.00;95019.41;5119651;28;20027;-93
2022/11/26 07:12:08;;;;;;;106.93;53.47;;;;;;;8.85;100.00;95026.38;5101664;28;20039;-92
2022/11/26 07:14:34;;;;;;;106.93;51.63;;;;;;;9.21;100.00;95029.47;5101322;28;20032;-92
2022/11/26 07:17:00;;;;;;;101.93;49.08;;;;;;;8.89;100.00;95028.28;5101195;28;20378;-92
2022/11/26 07:19:25;;;;;;;109.88;50.97;;;;;;;9.17;100.00;95039.59;5100893;28;20031;-90
2022/11/26 07:21:58;;;;;;;99.13;49.17;;;;;;;9.28;100.00;95034.50;5100843;28;20505;-90
2022/11/26 07:24:23;;;;;;;91.20;47.53;;;;;;;9.15;100.00;95036.44;5119039;28;20030;-90
2022/11/26 07:26:49;;;;;;;96.15;47.70;;;;;;;9.44;100.00;95057.22;5108533;28;20023;-90
2022/11/26 07:29:15;;;;;;;88.93;44.92;;;;;;;9.47;100.00;95054.13;5091301;28;20034;-90
2022/11/26 07:31:40;;;;;;;84.90;44.95;;;;;;;9.25;100.00;95046.22;5075433;28;20023;-91
2022/11/26 07:34:06;;;;;;;86.47;44.53;;;;;;;9.70;100.00;95054.91;5064943;28;20123;-90
2022/11/26 07:36:31;;;;;;;97.45;46.92;;;;;;;9.17;100.00;95062.34;5080434;28;20061;-90
2022/11/26 07:38:58;;;;;;;93.60;46.63;;;;;;;9.30;100.00;95072.47;5083738;28;20039;-89
2022/11/26 07:41:24;;;;;;;101.18;47.75;;;;;;;9.70;100.00;95085.53;5118875;28;20151;-90
2022/11/26 07:43:53;;;;;;;95.03;45.65;;;;;;;9.83;100.00;95094.81;5100907;28;20130;-90
2022/11/26 07:46:21;;;;;;;134.05;52.67;;;;;;;9.09;100.00;95094.13;5083562;28;20344;-91
2022/11/26 07:48:47;;;;;;;108.82;51.75;;;;;;;9.18;100.00;95109.19;5100343;28;20436;-90
2022/11/26 07:51:27;;;;;;;105.45;51.10;;;;;;;8.78;100.00;95089.25;5100238;28;20030;-90
2022/11/26 07:53:54;;;;;;;100.38;47.95;;;;;;;8.88;100.00;95097.22;5100055;28;20440;-89
2022/11/26 07:56:19;;;;;;;103.20;47.72;;;;;;;8.64;100.00;95086.13;5100635;28;20485;-89
2022/11/26 07:58:47;;;;;;;86.68;41.55;;;;;;;8.87;100.00;95072.13;5100263;28;20039;-89
2022/11/26 08:01:15;;;;;;;84.40;42.40;;;;;;;8.88;100.00;95073.69;5100525;28;20321;-89
2022/11/26 08:03:42;;;;;;;79.57;38.28;;;;;;;9.26;100.00;95087.06;5098283;28;20093;-91
2022/11/26 08:06:22;;;;;;;77.60;40.30;;;;;;;9.21;100.00;95088.81;5099933;28;20036;-89
2022/11/26 08:08:48;;;;;;;79.57;39.35;;;;;;;8.89;100.00;95098.81;5100281;28;20015;-89
2022/11/26 08:11:24;;;;;;;83.32;39.88;;;;;;;8.90;100.00;95107.44;5083341;28;20027;-88
2022/11/26 08:13:55;;;;;;;80.53;42.33;;;;;;;9.05;100.00;95101.66;5100180;28;20023;-88
2022/11/26 08:16:21;;;;;;;87.43;41.28;;;;;;;8.63;100.00;95103.66;5092138;28;20080;-88
2022/11/26 08:18:46;;;;;;;82.25;42.03;;;;;;;8.91;100.00;95104.59;5103896;28;20437;-88
2022/11/26 08:21:12;;;;;;;73.82;38.53;;;;;;;8.81;100.00;95095.78;5079868;28;20084;-88
2022/11/26 08:23:37;;;;;;;80.40;40.05;;;;;;;9.01;100.00;95097.94;5063074;28;20100;-88
2022/11/26 08:26:08;;;;;;;80.47;39.38;;;;;;;9.33;100.00;95103.38;5079825;28;20433;-88
2022/11/26 08:28:33;;;;;;;80.45;40.15;;;;;;;8.90;100.00;95108.25;5080205;28;20159;-88
2022/11/26 08:31:04;;;;;;;69.82;36.25;;;;;;;9.21;100.00;95120.97;5097723;28;20516;-88
2022/11/26 08:33:29;;;;;;;86.63;41.38;;;;;;;9.08;100.00;95122.09;5079143;28;20052;-90
2022/11/26 08:35:55;;;;;;;78.90;40.17;;;;;;;9.28;100.00;95126.84;5083332;28;20071;-89
2022/11/26 08:38:21;;;;;;;83.80;43.17;;;;;;;8.95;100.00;95125.81;5118003;28;20432;-88
2022/11/26 08:40:46;;;;;;;85.82;43.17;;;;;;;9.62;100.00;95131.22;5082050;28;20118;-84
2022/11/26 08:43:12;;;;;;;95.80;45.67;;;;;;;9.54;100.00;95131.63;5117732;28;20347;-84
2022/11/26 08:45:37;;;;;;;110.03;54.15;;;;;;;9.07;100.00;95138.81;5117194;28;20112;-84
2022/11/26 08:48:02;;;;;;;108.95;53.53;;;;;;;9.18;100.00;95126.69;5117232;28;20036;-83
2022/11/26 08:50:28;;;;;;;159.77;59.03;;;;;;;9.13;100.00;95137.84;5116894;28;20344;-83
2022/11/26 08:52:54;;;;;;;117.97;56.53;;;;;;;9.17;100.00;95146.78;5099026;28;20031;-83
2022/11/26 08:55:20;;;;;;;107.75;52.53;;;;;;;8.96;100.00;95147.53;5099287;28;20058;-84
2022/11/26 08:57:45;;;;;;;88.57;43.58;;;;;;;9.25;100.00;95147.44;5117260;28;20023;-83
2022/11/26 09:00:11;;;;;;;100.40;49.65;;;;;;;9.26;100.00;95152.44;5117147;28;20097;-84
2022/11/26 09:02:37;;;;;;;115.20;55.15;;;;;;;9.48;100.00;95165.56;5117255;28;20036;-84
2022/11/26 09:05:15;;;;;;;;;;;;;;;;;;;;;
2022/11/26 09:07:40;;;;;;;87.70;43.55;;;;;;;9.24;100.00;95167.53;5117126;28;20450;-84
2022/11/26 09:10:06;;;;;;;69.60;36.60;;;;;;;9.28;100.00;95173.91;5117337;28;20114;-84
2022/11/26 09:12:44;;;;;;;;;;;;;;;;;;;;;
2022/11/26 09:15:10;;;;;;;74.82;38.53;;;;;;;9.74;100.00;95178.19;5100592;28;20016;-91
2022/11/26 09:17:36;;;;;;;67.95;35.85;;;;;;;9.50;100.00;95172.38;5117228;28;20106;-91
2022/11/26 09:20:01;;;;;;;77.40;38.28;;;;;;;9.16;100.00;95176.59;5119140;28;20463;-90
2022/11/26 09:22:26;;;;;;;75.70;40.25;;;;;;;10.01;100.00;95175.66;5102676;28;20096;-89
2022/11/26 09:25:22;;;;;;;64.53;35.58;;;;;;;10.14;100.00;95177.13;5121493;28;20028;-89
2022/11/26 09:27:48;;;;;;;72.60;37.53;;;;;;;10.08;100.00;95172.09;5104712;28;20031;-90
2022/11/26 09:30:15;;;;;;;62.97;34.88;;;;;;;9.70;100.00;95172.66;5121258;28;20114;-90
2022/11/26 09:32:42;;;;;;;63.53;34.17;;;;;;;10.77;100.00;95183.84;5120759;28;20616;-91
2022/11/26 09:35:08;;;;;;;62.95;34.95;;;;;;;10.85;100.00;95203.59;5121241;28;20046;-90
2022/11/26 09:37:33;;;;;;;67.28;34.25;;;;;;;10.71;100.00;95203.16;5098481;28;20020;-90
2022/11/26 09:39:59;;;;;;;54.20;29.60;;;;;;;10.77;100.00;95207.44;5082408;28;20096;-84
2022/11/26 09:42:46;;;;;;;57.65;32.40;;;;;;;10.17;100.00;95218.53;5100020;28;20024;-85
2022/11/26 09:45:29;;;;;;;62.25;32.38;;;;;;;10.57;100.00;95214.03;5109759;28;20080;-86
2022/11/26 09:47:55;;;;;;;62.67;32.78;;;;;;;10.12;100.00;95202.78;5102527;28;20027;-84
2022/11/26 09:50:30;;;;;;;57.50;32.88;;;;;;;10.11;100.00;95206.41;5120613;28;20028;-85
2022/11/26 09:53:03;;;;;;;57.08;31.98;;;;;;;10.21;100.00;95205.75;5102611;28;20038;-85
2022/11/26 09:55:34;;;;;;;69.57;34.97;;;;;;;10.15;100.00;95220.63;5120657;28;20031;-83
2022/11/26 09:58:19;;;;;;;70.57;37.53;;;;;;;9.25;100.00;95220.66;5102605;28;20488;-83
2022/11/26 10:00:50;;;;;;;79.07;41.05;;;;;;;9.51;100.00;95234.91;5120125;28;20051;-83
2022/11/26 10:03:29;;;;;;;77.40;41.20;;;;;;;9.76;100.00;95231.88;5121014;28;20442;-83
2022/11/26 10:06:01;;;;;;;79.05;39.97;;;;;;;9.55;100.00;95228.19;5102075;28;20385;-83
2022/11/26 10:08:35;;;;;;;78.03;40.08;;;;;;;9.78;100.00;95229.03;5120720;28;20035;-83
2022/11/26 10:11:19;;;;;;;87.63;42.22;;;;;;;9.69;100.00;95241.72;5119709;28;20032;-83
2022/11/26 10:14:14;;;;;;;85.60;43.30;;;;;;;9.17;100.00;95248.75;5120539;28;20031;-83
2022/11/26 10:16:58;;;;;;;85.07;41.53;;;;;;;9.85;100.00;95247.16;5081185;28;20039;-82
2022/11/26 10:19:28;;;;;;;87.93;41.42;;;;;;;10.23;100.00;95250.81;5120052;28;20023;-82
2022/11/26 10:21:59;;;;;;;86.30;44.10;;;;;;;10.21;100.00;95249.47;5101791;28;20432;-89
2022/11/26 10:24:27;;;;;;;77.50;40.28;;;;;;;10.24;100.00;95252.41;5102073;28;20455;-83
2022/11/26 10:26:59;;;;;;;77.20;40.33;;;;;;;10.16;100.00;95255.44;5102181;28;20027;-96
2022/11/26 10:29:39;;;;;;;78.53;40.95;;;;;;;9.89;100.00;95254.31;5086092;28;20036;-96
2022/11/26 10:32:26;;;;;;;87.90;42.65;;;;;;;9.72;100.00;95256.94;5102629;28;20374;-86
2022/11/26 10:34:52;;;;;;;90.43;45.15;;;;;;;9.66;100.00;95251.88;5101011;28;20027;-86
2022/11/26 10:37:22;;;;;;;98.32;48.33;;;;;;;9.50;100.00;95258.72;5118719;28;20030;-86
2022/11/26 10:39:48;;;;;;;93.88;48.05;;;;;;;9.87;100.00;95255.56;5083768;28;20059;-86
2022/11/26 10:42:16;;;;;;;99.35;47.60;;;;;;;9.98;100.00;95256.53;5099267;28;20120;-86
2022/11/26 10:44:41;;;;;;;99.28;48.65;;;;;;;9.72;100.00;95254.31;5090672;28;20344;-86
2022/11/26 10:47:45;;;;;;;94.20;46.78;;;;;;;10.23;100.00;95245.59;5106679;28;20035;-94
2022/11/26 10:50:23;;;;;;;101.82;47.22;;;;;;;9.84;100.00;95243.78;5019477;28;20041;-86
2022/11/26 10:52:50;;;;;;;100.30;47.13;;;;;;;9.86;100.00;95251.38;5019694;28;20071;-86
2022/11/26 10:55:26;;;;;;;100.72;48.58;;;;;;;9.76;100.00;95244.16;5073575;28;20048;-86
2022/11/26 10:57:58;;;;;;;108.13;48.67;;;;;;;9.80;100.00;95253.13;5111252;28;20030;-86
2022/11/26 11:00:30;;;;;;;104.85;47.95;;;;;;;9.92;100.00;95247.00;5100130;28;20027;-85
2022/11/26 11:02:55;;;;;;;96.13;46.35;;;;;;;9.71;100.00;95252.75;5100330;28;20033;-86
2022/11/26 11:05:21;;;;;;;108.80;49.00;;;;;;;9.36;100.00;95240.72;5100329;28;20351;-83
2022/11/26 11:07:46;;;;;;;107.72;48.85;;;;;;;10.12;100.00;95238.63;5094275;28;20082;-83
2022/11/26 11:10:15;;;;;;;101.30;47.97;;;;;;;10.02;100.00;95237.44;5086213;28;20031;-83
2022/11/26 11:12:49;;;;;;;113.88;50.58;;;;;;;10.69;100.00;95241.94;5073454;28;20053;-83
2022/11/26 11:15:19;;;;;;;91.43;44.60;;;;;;;10.96;100.00;95255.06;5079667;28;20424;-91
2022/11/26 11:17:45;;;;;;;91.90;44.67;;;;;;;10.41;100.00;95252.41;5079653;28;20053;-91
2022/11/26 11:20:27;;;;;;;94.03;44.22;;;;;;;11.36;100.00;95249.66;5079132;28;20343;-90
2022/11/26 11:22:57;;;;;;;80.47;40.20;;;;;;;10.79;100.00;95257.78;5111453;28;20043;-89